Plevna, Montana
Current Conditions -  °F | °C
As of 1:51 PM on Friday 21 Nov 2014 (Local Time) from KBHK Reporting Station
Clear Clear  
Wind Chill: 39°   Ceiling: Unl
Heat Index: 45°   Visibility: 10mi
Dew Point: 29°   Wind: 12mph
Humidity: 53%   Direction: 260°W
Pressure: 29.75"   Gusts: NA
Location:  46.42°N, 104.52°W
Report Text: KBHK 212051Z AUTO 26010KT 10SM CLR 07/M02 A2975 RMK AO2 SLP098 T00721017 56008
Loading
Personal Weather Stations






























Interactive Weather Map New forecast layout! Learn more

10-Day Weather Forecast

Advertisements
Track Severe Weather on mobile